sensor_id;sensor_type;location;lat;lon;timestamp;P1;durP1;ratioP1;P2;durP2;ratioP2
30896;SDS011;64229;52.246;21.054;2022-11-15T00:01:29;35.85;;;17.40;;
30896;SDS011;64229;52.246;21.054;2022-11-15T00:03:54;35.35;;;17.45;;
30896;SDS011;64229;52.246;21.054;2022-11-15T00:06:20;42.70;;;18.65;;
30896;SDS011;64229;52.246;21.054;2022-11-15T00:08:45;43.20;;;17.80;;
30896;SDS011;64229;52.246;21.054;2022-11-15T00:11:11;45.65;;;17.48;;
30896;SDS011;64229;52.246;21.054;2022-11-15T00:13:38;44.97;;;16.65;;
30896;SDS011;64229;52.246;21.054;2022-11-15T00:16:04;42.95;;;17.33;;
30896;SDS011;64229;52.246;21.054;2022-11-15T00:18:30;44.25;;;18.20;;
30896;SDS011;64229;52.246;21.054;2022-11-15T00:21:02;36.05;;;16.30;;
30896;SDS011;64229;52.246;21.054;2022-11-15T00:23:29;40.88;;;17.67;;
30896;SDS011;64229;52.246;21.054;2022-11-15T00:25:57;37.30;;;16.48;;
30896;SDS011;64229;52.246;21.054;2022-11-15T00:28:23;35.70;;;16.30;;
30896;SDS011;64229;52.246;21.054;2022-11-15T00:30:49;38.97;;;16.60;;
30896;SDS011;64229;52.246;21.054;2022-11-15T00:33:14;38.15;;;17.75;;
30896;SDS011;64229;52.246;21.054;2022-11-15T00:35:40;35.63;;;16.65;;
30896;SDS011;64229;52.246;21.054;2022-11-15T00:38:05;37.53;;;16.48;;
30896;SDS011;64229;52.246;21.054;2022-11-15T00:40:30;34.22;;;15.88;;
30896;SDS011;64229;52.246;21.054;2022-11-15T00:42:56;37.22;;;17.27;;
30896;SDS011;64229;52.246;21.054;2022-11-15T00:45:22;36.42;;;16.60;;
30896;SDS011;64229;52.246;21.054;2022-11-15T00:47:47;37.97;;;16.98;;
30896;SDS011;64229;52.246;21.054;2022-11-15T00:50:13;37.20;;;16.98;;
30896;SDS011;64229;52.246;21.054;2022-11-15T00:52:38;42.78;;;18.40;;
30896;SDS011;64229;52.246;21.054;2022-11-15T00:55:04;45.28;;;19.63;;
30896;SDS011;64229;52.246;21.054;2022-11-15T00:57:29;44.03;;;20.08;;
30896;SDS011;64229;52.246;21.054;2022-11-15T00:59:55;44.08;;;19.35;;
30896;SDS011;64229;52.246;21.054;2022-11-15T01:02:20;51.17;;;20.75;;
30896;SDS011;64229;52.246;21.054;2022-11-15T01:04:46;45.28;;;19.20;;
30896;SDS011;64229;52.246;21.054;2022-11-15T01:07:11;45.95;;;20.80;;
30896;SDS011;64229;52.246;21.054;2022-11-15T01:09:36;44.83;;;19.92;;
30896;SDS011;64229;52.246;21.054;2022-11-15T01:12:02;42.42;;;19.88;;
30896;SDS011;64229;52.246;21.054;2022-11-15T01:14:27;48.40;;;18.80;;
30896;SDS011;64229;52.246;21.054;2022-11-15T01:16:52;45.90;;;18.65;;
30896;SDS011;64229;52.246;21.054;2022-11-15T01:19:18;47.47;;;20.38;;
30896;SDS011;64229;52.246;21.054;2022-11-15T01:21:43;51.33;;;21.48;;
30896;SDS011;64229;52.246;21.054;2022-11-15T01:24:11;44.80;;;20.75;;
30896;SDS011;64229;52.246;21.054;2022-11-15T01:26:38;49.03;;;20.90;;
30896;SDS011;64229;52.246;21.054;2022-11-15T01:29:03;49.97;;;20.90;;
30896;SDS011;64229;52.246;21.054;2022-11-15T01:31:28;55.22;;;22.02;;
30896;SDS011;64229;52.246;21.054;2022-11-15T01:33:54;48.17;;;20.83;;
30896;SDS011;64229;52.246;21.054;2022-11-15T01:36:20;55.70;;;21.98;;
30896;SDS011;64229;52.246;21.054;2022-11-15T01:38:46;53.15;;;22.25;;
30896;SDS011;64229;52.246;21.054;2022-11-15T01:41:19;52.05;;;22.35;;
30896;SDS011;64229;52.246;21.054;2022-11-15T01:43:47;57.60;;;23.17;;
30896;SDS011;64229;52.246;21.054;2022-11-15T01:49:03;58.35;;;23.23;;
30896;SDS011;64229;52.246;21.054;2022-11-15T01:51:36;53.72;;;21.23;;
30896;SDS011;64229;52.246;21.054;2022-11-15T01:54:07;53.03;;;20.70;;
30896;SDS011;64229;52.246;21.054;2022-11-15T01:56:38;55.38;;;21.50;;
30896;SDS011;64229;52.246;21.054;2022-11-15T01:59:11;57.67;;;23.40;;
30896;SDS011;64229;52.246;21.054;2022-11-15T02:01:37;56.40;;;21.27;;
30896;SDS011;64229;52.246;21.054;2022-11-15T02:04:08;57.08;;;22.98;;
30896;SDS011;64229;52.246;21.054;2022-11-15T02:06:38;49.65;;;21.70;;
30896;SDS011;64229;52.246;21.054;2022-11-15T02:09:04;51.03;;;21.10;;
30896;SDS011;64229;52.246;21.054;2022-11-15T02:11:30;48.78;;;19.60;;
30896;SDS011;64229;52.246;21.054;2022-11-15T02:13:56;51.55;;;20.73;;
30896;SDS011;64229;52.246;21.054;2022-11-15T02:18:52;56.60;;;21.25;;
30896;SDS011;64229;52.246;21.054;2022-11-15T02:21:39;50.88;;;20.10;;
30896;SDS011;64229;52.246;21.054;2022-11-15T02:24:28;53.22;;;21.55;;
30896;SDS011;64229;52.246;21.054;2022-11-15T02:32:14;46.92;;;19.83;;
30896;SDS011;64229;52.246;21.054;2022-11-15T02:37:39;49.17;;;20.58;;
30896;SDS011;64229;52.246;21.054;2022-11-15T02:40:12;52.97;;;20.67;;
30896;SDS011;64229;52.246;21.054;2022-11-15T02:42:52;49.58;;;20.33;;
30896;SDS011;64229;52.246;21.054;2022-11-15T02:45:40;40.58;;;18.05;;
30896;SDS011;64229;52.246;21.054;2022-11-15T02:48:09;49.22;;;21.02;;
30896;SDS011;64229;52.246;21.054;2022-11-15T02:50:36;50.20;;;21.13;;
30896;SDS011;64229;52.246;21.054;2022-11-15T02:53:02;48.72;;;19.73;;
30896;SDS011;64229;52.246;21.054;2022-11-15T02:55:29;48.45;;;18.25;;
30896;SDS011;64229;52.246;21.054;2022-11-15T03:11:15;50.63;;;20.92;;
30896;SDS011;64229;52.246;21.054;2022-11-15T03:21:42;49.83;;;20.52;;
30896;SDS011;64229;52.246;21.054;2022-11-15T03:24:09;53.97;;;19.52;;
30896;SDS011;64229;52.246;21.054;2022-11-15T03:26:37;55.40;;;21.17;;
30896;SDS011;64229;52.246;21.054;2022-11-15T03:29:09;55.33;;;21.77;;
30896;SDS011;64229;52.246;21.054;2022-11-15T03:31:39;56.53;;;21.77;;
30896;SDS011;64229;52.246;21.054;2022-11-15T03:34:15;56.35;;;21.75;;
30896;SDS011;64229;52.246;21.054;2022-11-15T03:36:47;59.42;;;21.75;;
30896;SDS011;64229;52.246;21.054;2022-11-15T03:39:15;54.05;;;20.80;;
30896;SDS011;64229;52.246;21.054;2022-11-15T03:42:24;50.92;;;21.25;;
30896;SDS011;64229;52.246;21.054;2022-11-15T03:44:40;57.60;;;21.58;;
30896;SDS011;64229;52.246;21.054;2022-11-15T03:47:17;51.83;;;20.15;;
30896;SDS011;64229;52.246;21.054;2022-11-15T03:49:49;59.53;;;21.50;;
30896;SDS011;64229;52.246;21.054;2022-11-15T03:52:18;57.70;;;21.52;;
30896;SDS011;64229;52.246;21.054;2022-11-15T03:54:49;57.75;;;22.67;;
30896;SDS011;64229;52.246;21.054;2022-11-15T03:57:19;55.55;;;23.50;;
30896;SDS011;64229;52.246;21.054;2022-11-15T03:59:44;55.33;;;20.25;;
30896;SDS011;64229;52.246;21.054;2022-11-15T04:02:10;55.28;;;22.30;;
30896;SDS011;64229;52.246;21.054;2022-11-15T04:04:35;60.05;;;22.75;;
30896;SDS011;64229;52.246;21.054;2022-11-15T04:07:01;58.80;;;21.77;;
30896;SDS011;64229;52.246;21.054;2022-11-15T04:09:26;62.72;;;22.98;;
30896;SDS011;64229;52.246;21.054;2022-11-15T04:11:51;61.38;;;24.08;;
30896;SDS011;64229;52.246;21.054;2022-11-15T04:14:16;64.80;;;24.52;;
30896;SDS011;64229;52.246;21.054;2022-11-15T04:16:42;63.42;;;24.02;;
30896;SDS011;64229;52.246;21.054;2022-11-15T04:19:07;65.40;;;24.20;;
30896;SDS011;64229;52.246;21.054;2022-11-15T04:21:51;67.35;;;24.73;;
30896;SDS011;64229;52.246;21.054;2022-11-15T04:24:35;62.03;;;23.60;;
30896;SDS011;64229;52.246;21.054;2022-11-15T04:27:00;67.05;;;23.50;;
30896;SDS011;64229;52.246;21.054;2022-11-15T04:29:26;63.53;;;25.08;;
30896;SDS011;64229;52.246;21.054;2022-11-15T04:32:04;62.83;;;22.85;;
30896;SDS011;64229;52.246;21.054;2022-11-15T04:34:31;63.33;;;23.73;;
30896;SDS011;64229;52.246;21.054;2022-11-15T04:36:57;67.85;;;24.48;;
30896;SDS011;64229;52.246;21.054;2022-11-15T04:39:38;63.17;;;24.10;;
30896;SDS011;64229;52.246;21.054;2022-11-15T04:42:08;65.00;;;23.48;;
30896;SDS011;64229;52.246;21.054;2022-11-15T04:44:34;65.97;;;23.85;;
30896;SDS011;64229;52.246;21.054;2022-11-15T04:46:59;66.75;;;24.10;;
30896;SDS011;64229;52.246;21.054;2022-11-15T04:49:25;65.75;;;25.42;;
30896;SDS011;64229;52.246;21.054;2022-11-15T04:51:50;68.78;;;24.73;;
30896;SDS011;64229;52.246;21.054;2022-11-15T04:54:15;65.18;;;23.55;;
30896;SDS011;64229;52.246;21.054;2022-11-15T04:56:41;67.85;;;24.90;;
30896;SDS011;64229;52.246;21.054;2022-11-15T04:59:07;63.75;;;23.10;;
30896;SDS011;64229;52.246;21.054;2022-11-15T05:01:32;57.47;;;22.98;;
30896;SDS011;64229;52.246;21.054;2022-11-15T05:03:58;60.63;;;23.50;;
30896;SDS011;64229;52.246;21.054;2022-11-15T05:06:42;58.08;;;22.05;;
30896;SDS011;64229;52.246;21.054;2022-11-15T05:09:07;58.40;;;22.17;;
30896;SDS011;64229;52.246;21.054;2022-11-15T05:11:32;63.05;;;22.73;;
30896;SDS011;64229;52.246;21.054;2022-11-15T05:13:58;63.60;;;23.55;;
30896;SDS011;64229;52.246;21.054;2022-11-15T05:16:23;63.05;;;23.33;;
30896;SDS011;64229;52.246;21.054;2022-11-15T05:18:52;57.33;;;20.75;;
30896;SDS011;64229;52.246;21.054;2022-11-15T05:21:18;61.95;;;22.08;;
30896;SDS011;64229;52.246;21.054;2022-11-15T05:23:43;54.63;;;21.08;;
30896;SDS011;64229;52.246;21.054;2022-11-15T05:26:09;55.05;;;21.65;;
30896;SDS011;64229;52.246;21.054;2022-11-15T05:28:35;59.17;;;21.15;;
30896;SDS011;64229;52.246;21.054;2022-11-15T05:31:02;62.97;;;21.48;;
30896;SDS011;64229;52.246;21.054;2022-11-15T05:33:33;62.40;;;20.58;;
30896;SDS011;64229;52.246;21.054;2022-11-15T05:36:02;63.17;;;21.88;;
30896;SDS011;64229;52.246;21.054;2022-11-15T05:38:31;60.00;;;22.23;;
30896;SDS011;64229;52.246;21.054;2022-11-15T05:40:56;66.30;;;23.20;;
30896;SDS011;64229;52.246;21.054;2022-11-15T05:43:22;61.72;;;23.17;;
30896;SDS011;64229;52.246;21.054;2022-11-15T05:45:48;62.92;;;21.90;;
30896;SDS011;64229;52.246;21.054;2022-11-15T05:48:14;61.47;;;23.40;;
30896;SDS011;64229;52.246;21.054;2022-11-15T05:50:41;71.45;;;22.85;;
30896;SDS011;64229;52.246;21.054;2022-11-15T05:53:10;62.45;;;22.08;;
30896;SDS011;64229;52.246;21.054;2022-11-15T05:55:37;68.55;;;24.63;;
30896;SDS011;64229;52.246;21.054;2022-11-15T05:58:04;61.08;;;21.85;;
30896;SDS011;64229;52.246;21.054;2022-11-15T06:00:30;63.05;;;21.83;;
30896;SDS011;64229;52.246;21.054;2022-11-15T06:02:55;67.13;;;22.38;;
30896;SDS011;64229;52.246;21.054;2022-11-15T06:05:21;61.17;;;22.38;;
30896;SDS011;64229;52.246;21.054;2022-11-15T06:07:46;61.60;;;21.13;;
30896;SDS011;64229;52.246;21.054;2022-11-15T06:10:11;67.13;;;21.85;;
30896;SDS011;64229;52.246;21.054;2022-11-15T06:12:36;61.58;;;20.48;;
30896;SDS011;64229;52.246;21.054;2022-11-15T06:15:02;64.97;;;21.90;;
30896;SDS011;64229;52.246;21.054;2022-11-15T06:17:28;51.70;;;20.20;;
30896;SDS011;64229;52.246;21.054;2022-11-15T06:19:53;63.20;;;22.38;;
30896;SDS011;64229;52.246;21.054;2022-11-15T06:22:19;64.85;;;21.33;;
30896;SDS011;64229;52.246;21.054;2022-11-15T06:24:44;56.17;;;20.35;;
30896;SDS011;64229;52.246;21.054;2022-11-15T06:27:10;59.00;;;20.95;;
30896;SDS011;64229;52.246;21.054;2022-11-15T06:29:36;62.42;;;21.70;;
30896;SDS011;64229;52.246;21.054;2022-11-15T06:32:01;59.83;;;20.33;;
30896;SDS011;64229;52.246;21.054;2022-11-15T06:34:26;61.95;;;21.77;;
30896;SDS011;64229;52.246;21.054;2022-11-15T06:36:52;59.75;;;20.73;;
30896;SDS011;64229;52.246;21.054;2022-11-15T06:39:17;50.80;;;18.45;;
30896;SDS011;64229;52.246;21.054;2022-11-15T06:41:42;48.53;;;18.48;;
30896;SDS011;64229;52.246;21.054;2022-11-15T06:44:08;61.65;;;20.15;;
30896;SDS011;64229;52.246;21.054;2022-11-15T06:46:33;55.50;;;20.50;;
30896;SDS011;64229;52.246;21.054;2022-11-15T06:48:58;61.40;;;20.70;;
30896;SDS011;64229;52.246;21.054;2022-11-15T06:51:23;63.17;;;21.98;;
30896;SDS011;64229;52.246;21.054;2022-11-15T06:53:49;70.13;;;22.33;;
30896;SDS011;64229;52.246;21.054;2022-11-15T06:56:14;66.60;;;23.30;;
30896;SDS011;64229;52.246;21.054;2022-11-15T06:58:39;66.25;;;23.10;;
30896;SDS011;64229;52.246;21.054;2022-11-15T07:01:05;65.97;;;22.40;;
30896;SDS011;64229;52.246;21.054;2022-11-15T07:03:36;67.10;;;22.35;;
30896;SDS011;64229;52.246;21.054;2022-11-15T07:06:04;62.55;;;21.40;;
30896;SDS011;64229;52.246;21.054;2022-11-15T07:08:29;65.35;;;22.17;;
30896;SDS011;64229;52.246;21.054;2022-11-15T07:10:58;65.78;;;20.63;;
30896;SDS011;64229;52.246;21.054;2022-11-15T07:13:28;64.97;;;22.35;;
30896;SDS011;64229;52.246;21.054;2022-11-15T07:15:57;56.78;;;21.40;;
30896;SDS011;64229;52.246;21.054;2022-11-15T07:18:23;58.70;;;19.83;;
30896;SDS011;64229;52.246;21.054;2022-11-15T07:20:48;61.55;;;20.10;;
30896;SDS011;64229;52.246;21.054;2022-11-15T07:23:14;51.03;;;19.17;;
30896;SDS011;64229;52.246;21.054;2022-11-15T07:25:39;46.60;;;17.75;;
30896;SDS011;64229;52.246;21.054;2022-11-15T07:28:04;46.70;;;19.05;;
30896;SDS011;64229;52.246;21.054;2022-11-15T07:30:30;49.13;;;18.75;;
30896;SDS011;64229;52.246;21.054;2022-11-15T07:32:59;47.90;;;18.67;;
30896;SDS011;64229;52.246;21.054;2022-11-15T07:35:26;44.95;;;17.65;;
30896;SDS011;64229;52.246;21.054;2022-11-15T07:37:59;47.63;;;18.10;;
30896;SDS011;64229;52.246;21.054;2022-11-15T07:40:26;52.20;;;19.17;;
30896;SDS011;64229;52.246;21.054;2022-11-15T07:42:58;48.20;;;16.85;;
30896;SDS011;64229;52.246;21.054;2022-11-15T07:45:27;43.08;;;16.88;;
30896;SDS011;64229;52.246;21.054;2022-11-15T07:47:53;46.20;;;17.05;;
30896;SDS011;64229;52.246;21.054;2022-11-15T07:50:20;49.30;;;18.60;;
30896;SDS011;64229;52.246;21.054;2022-11-15T07:52:46;50.03;;;17.83;;
30896;SDS011;64229;52.246;21.054;2022-11-15T07:55:12;49.17;;;16.92;;
30896;SDS011;64229;52.246;21.054;2022-11-15T07:57:37;48.40;;;17.83;;
30896;SDS011;64229;52.246;21.054;2022-11-15T08:00:05;52.40;;;17.95;;
30896;SDS011;64229;52.246;21.054;2022-11-15T08:02:32;46.13;;;18.17;;
30896;SDS011;64229;52.246;21.054;2022-11-15T08:04:57;48.95;;;18.45;;
30896;SDS011;64229;52.246;21.054;2022-11-15T08:07:23;47.85;;;18.63;;
30896;SDS011;64229;52.246;21.054;2022-11-15T08:09:48;48.53;;;17.13;;
30896;SDS011;64229;52.246;21.054;2022-11-15T08:12:14;53.13;;;17.95;;
30896;SDS011;64229;52.246;21.054;2022-11-15T08:14:39;48.50;;;18.77;;
30896;SDS011;64229;52.246;21.054;2022-11-15T08:17:04;47.67;;;17.15;;
30896;SDS011;64229;52.246;21.054;2022-11-15T08:19:29;45.10;;;16.73;;
30896;SDS011;64229;52.246;21.054;2022-11-15T08:21:55;46.42;;;17.52;;
30896;SDS011;64229;52.246;21.054;2022-11-15T08:24:20;40.92;;;17.33;;
30896;SDS011;64229;52.246;21.054;2022-11-15T08:26:45;41.00;;;17.90;;
30896;SDS011;64229;52.246;21.054;2022-11-15T08:29:11;51.50;;;19.65;;
30896;SDS011;64229;52.246;21.054;2022-11-15T08:31:37;42.50;;;17.00;;
30896;SDS011;64229;52.246;21.054;2022-11-15T08:34:03;48.47;;;19.42;;
30896;SDS011;64229;52.246;21.054;2022-11-15T08:36:29;53.22;;;19.92;;
30896;SDS011;64229;52.246;21.054;2022-11-15T08:38:54;45.20;;;18.00;;
30896;SDS011;64229;52.246;21.054;2022-11-15T08:41:24;40.80;;;17.08;;
30896;SDS011;64229;52.246;21.054;2022-11-15T08:43:56;43.65;;;16.48;;
30896;SDS011;64229;52.246;21.054;2022-11-15T08:46:21;43.88;;;16.15;;
30896;SDS011;64229;52.246;21.054;2022-11-15T08:48:47;40.90;;;16.40;;
30896;SDS011;64229;52.246;21.054;2022-11-15T08:51:12;43.53;;;17.05;;
30896;SDS011;64229;52.246;21.054;2022-11-15T08:53:38;44.22;;;17.33;;
30896;SDS011;64229;52.246;21.054;2022-11-15T08:56:06;44.30;;;18.58;;
30896;SDS011;64229;52.246;21.054;2022-11-15T08:58:33;42.67;;;17.85;;
30896;SDS011;64229;52.246;21.054;2022-11-15T09:00:58;43.33;;;17.45;;
30896;SDS011;64229;52.246;21.054;2022-11-15T09:03:23;43.63;;;18.35;;
30896;SDS011;64229;52.246;21.054;2022-11-15T09:05:53;48.78;;;18.48;;
30896;SDS011;64229;52.246;21.054;2022-11-15T09:08:19;44.50;;;18.25;;
30896;SDS011;64229;52.246;21.054;2022-11-15T09:10:45;45.90;;;18.02;;
30896;SDS011;64229;52.246;21.054;2022-11-15T09:13:10;46.65;;;18.38;;
30896;SDS011;64229;52.246;21.054;2022-11-15T09:15:35;47.97;;;18.63;;
30896;SDS011;64229;52.246;21.054;2022-11-15T09:18:01;45.92;;;17.85;;
30896;SDS011;64229;52.246;21.054;2022-11-15T09:20:26;45.78;;;17.55;;
30896;SDS011;64229;52.246;21.054;2022-11-15T09:22:51;45.03;;;17.10;;
30896;SDS011;64229;52.246;21.054;2022-11-15T09:25:16;38.67;;;16.95;;
30896;SDS011;64229;52.246;21.054;2022-11-15T09:27:42;38.10;;;16.85;;
30896;SDS011;64229;52.246;21.054;2022-11-15T09:30:07;42.55;;;18.05;;
30896;SDS011;64229;52.246;21.054;2022-11-15T09:32:33;41.75;;;17.85;;
30896;SDS011;64229;52.246;21.054;2022-11-15T09:34:58;47.33;;;17.65;;
30896;SDS011;64229;52.246;21.054;2022-11-15T09:37:24;40.83;;;16.75;;
30896;SDS011;64229;52.246;21.054;2022-11-15T09:39:49;38.78;;;16.25;;
30896;SDS011;64229;52.246;21.054;2022-11-15T09:50:11;41.67;;;17.67;;
30896;SDS011;64229;52.246;21.054;2022-11-15T09:52:42;44.22;;;17.90;;
30896;SDS011;64229;52.246;21.054;2022-11-15T09:55:10;41.60;;;17.20;;
30896;SDS011;64229;52.246;21.054;2022-11-15T09:57:49;43.80;;;18.80;;
30896;SDS011;64229;52.246;21.054;2022-11-15T10:05:44;37.53;;;15.90;;
30896;SDS011;64229;52.246;21.054;2022-11-15T10:11:06;46.13;;;18.85;;
30896;SDS011;64229;52.246;21.054;2022-11-15T10:13:35;43.83;;;18.95;;
30896;SDS011;64229;52.246;21.054;2022-11-15T10:24:41;49.13;;;19.45;;
30896;SDS011;64229;52.246;21.054;2022-11-15T10:27:13;42.83;;;18.33;;
30896;SDS011;64229;52.246;21.054;2022-11-15T10:29:49;46.13;;;19.33;;
30896;SDS011;64229;52.246;21.054;2022-11-15T10:32:19;53.58;;;19.27;;
30896;SDS011;64229;52.246;21.054;2022-11-15T10:34:46;40.80;;;17.73;;
30896;SDS011;64229;52.246;21.054;2022-11-15T10:37:12;43.00;;;18.63;;
30896;SDS011;64229;52.246;21.054;2022-11-15T10:39:38;46.60;;;18.52;;
30896;SDS011;64229;52.246;21.054;2022-11-15T10:42:17;39.55;;;17.50;;
30896;SDS011;64229;52.246;21.054;2022-11-15T10:44:50;40.95;;;17.75;;
30896;SDS011;64229;52.246;21.054;2022-11-15T10:47:23;42.53;;;19.05;;
30896;SDS011;64229;52.246;21.054;2022-11-15T10:49:56;46.70;;;19.63;;
30896;SDS011;64229;52.246;21.054;2022-11-15T10:52:23;38.63;;;17.73;;
30896;SDS011;64229;52.246;21.054;2022-11-15T10:57:29;52.38;;;22.33;;
30896;SDS011;64229;52.246;21.054;2022-11-15T11:00:00;44.15;;;19.48;;
30896;SDS011;64229;52.246;21.054;2022-11-15T11:02:37;47.38;;;19.45;;
30896;SDS011;64229;52.246;21.054;2022-11-15T11:07:58;43.53;;;19.20;;
30896;SDS011;64229;52.246;21.054;2022-11-15T11:10:53;45.83;;;20.55;;
30896;SDS011;64229;52.246;21.054;2022-11-15T11:13:23;46.40;;;20.63;;
30896;SDS011;64229;52.246;21.054;2022-11-15T11:15:55;51.72;;;20.42;;
30896;SDS011;64229;52.246;21.054;2022-11-15T11:21:29;50.55;;;20.08;;
30896;SDS011;64229;52.246;21.054;2022-11-15T11:30:06;44.72;;;20.05;;
30896;SDS011;64229;52.246;21.054;2022-11-15T11:32:54;45.35;;;19.95;;
30896;SDS011;64229;52.246;21.054;2022-11-15T11:35:31;45.97;;;20.02;;
30896;SDS011;64229;52.246;21.054;2022-11-15T11:41:40;48.22;;;20.85;;
30896;SDS011;64229;52.246;21.054;2022-11-15T11:46:56;50.83;;;21.05;;
30896;SDS011;64229;52.246;21.054;2022-11-15T11:52:18;51.47;;;20.83;;
30896;SDS011;64229;52.246;21.054;2022-11-15T11:57:41;51.90;;;20.70;;
30896;SDS011;64229;52.246;21.054;2022-11-15T12:00:15;44.67;;;19.33;;
30896;SDS011;64229;52.246;21.054;2022-11-15T12:02:48;48.40;;;20.48;;
30896;SDS011;64229;52.246;21.054;2022-11-15T12:05:57;48.05;;;20.73;;
30896;SDS011;64229;52.246;21.054;2022-11-15T12:13:42;47.47;;;20.30;;
30896;SDS011;64229;52.246;21.054;2022-11-15T12:16:12;48.72;;;20.15;;
30896;SDS011;64229;52.246;21.054;2022-11-15T12:18:49;56.80;;;21.25;;
30896;SDS011;64229;52.246;21.054;2022-11-15T12:21:41;50.95;;;20.30;;
30896;SDS011;64229;52.246;21.054;2022-11-15T12:24:13;45.63;;;20.48;;
30896;SDS011;64229;52.246;21.054;2022-11-15T12:29:40;53.47;;;22.55;;
30896;SDS011;64229;52.246;21.054;2022-11-15T12:34:57;58.80;;;20.58;;
30896;SDS011;64229;52.246;21.054;2022-11-15T12:45:23;54.65;;;21.88;;
30896;SDS011;64229;52.246;21.054;2022-11-15T13:06:39;56.60;;;23.63;;
30896;SDS011;64229;52.246;21.054;2022-11-15T13:12:00;58.75;;;23.48;;
30896;SDS011;64229;52.246;21.054;2022-11-15T13:19:57;59.08;;;23.65;;
30896;SDS011;64229;52.246;21.054;2022-11-15T13:22:26;64.30;;;26.23;;
30896;SDS011;64229;52.246;21.054;2022-11-15T13:25:14;59.22;;;23.70;;
30896;SDS011;64229;52.246;21.054;2022-11-15T13:27:47;53.00;;;23.10;;
30896;SDS011;64229;52.246;21.054;2022-11-15T13:30:26;58.95;;;24.17;;
30896;SDS011;64229;52.246;21.054;2022-11-15T13:32:54;62.38;;;25.75;;
30896;SDS011;64229;52.246;21.054;2022-11-15T13:35:21;59.38;;;23.98;;
30896;SDS011;64229;52.246;21.054;2022-11-15T13:37:48;60.10;;;24.73;;
30896;SDS011;64229;52.246;21.054;2022-11-15T13:40:33;56.47;;;23.90;;
30896;SDS011;64229;52.246;21.054;2022-11-15T13:43:15;57.00;;;23.65;;
30896;SDS011;64229;52.246;21.054;2022-11-15T13:48:44;57.65;;;23.30;;
30896;SDS011;64229;52.246;21.054;2022-11-15T13:51:33;62.40;;;23.42;;
30896;SDS011;64229;52.246;21.054;2022-11-15T13:56:36;60.45;;;24.40;;
30896;SDS011;64229;52.246;21.054;2022-11-15T13:59:18;55.70;;;23.20;;
30896;SDS011;64229;52.246;21.054;2022-11-15T14:01:54;54.85;;;22.55;;
30896;SDS011;64229;52.246;21.054;2022-11-15T14:04:22;61.13;;;23.48;;
30896;SDS011;64229;52.246;21.054;2022-11-15T14:06:51;60.30;;;24.83;;
30896;SDS011;64229;52.246;21.054;2022-11-15T14:14:54;64.13;;;25.77;;
30896;SDS011;64229;52.246;21.054;2022-11-15T14:19:54;67.90;;;26.25;;
30896;SDS011;64229;52.246;21.054;2022-11-15T14:22:22;66.28;;;26.85;;
30896;SDS011;64229;52.246;21.054;2022-11-15T14:25:05;68.10;;;27.38;;
30896;SDS011;64229;52.246;21.054;2022-11-15T14:27:37;61.67;;;24.52;;
30896;SDS011;64229;52.246;21.054;2022-11-15T14:30:04;74.38;;;26.63;;
30896;SDS011;64229;52.246;21.054;2022-11-15T14:32:37;66.80;;;27.27;;
30896;SDS011;64229;52.246;21.054;2022-11-15T14:35:09;71.55;;;26.92;;
30896;SDS011;64229;52.246;21.054;2022-11-15T14:37:40;70.45;;;28.15;;
30896;SDS011;64229;52.246;21.054;2022-11-15T14:40:05;68.97;;;26.10;;
30896;SDS011;64229;52.246;21.054;2022-11-15T14:42:31;72.15;;;27.80;;
30896;SDS011;64229;52.246;21.054;2022-11-15T14:44:57;78.85;;;27.92;;
30896;SDS011;64229;52.246;21.054;2022-11-15T14:47:22;78.30;;;28.15;;
30896;SDS011;64229;52.246;21.054;2022-11-15T14:49:48;70.28;;;27.23;;
30896;SDS011;64229;52.246;21.054;2022-11-15T14:52:46;63.63;;;25.65;;
30896;SDS011;64229;52.246;21.054;2022-11-15T14:55:11;63.70;;;26.98;;
30896;SDS011;64229;52.246;21.054;2022-11-15T14:57:42;66.10;;;25.85;;
30896;SDS011;64229;52.246;21.054;2022-11-15T15:00:07;64.57;;;25.92;;
30896;SDS011;64229;52.246;21.054;2022-11-15T15:02:34;66.72;;;24.50;;
30896;SDS011;64229;52.246;21.054;2022-11-15T15:05:00;68.65;;;26.58;;
30896;SDS011;64229;52.246;21.054;2022-11-15T15:07:28;56.35;;;23.27;;
30896;SDS011;64229;52.246;21.054;2022-11-15T15:09:53;57.45;;;23.20;;
30896;SDS011;64229;52.246;21.054;2022-11-15T15:12:22;58.85;;;23.23;;
30896;SDS011;64229;52.246;21.054;2022-11-15T15:14:49;65.85;;;26.55;;
30896;SDS011;64229;52.246;21.054;2022-11-15T15:17:15;59.97;;;24.05;;
30896;SDS011;64229;52.246;21.054;2022-11-15T15:19:41;59.88;;;23.92;;
30896;SDS011;64229;52.246;21.054;2022-11-15T15:22:14;64.57;;;25.08;;
30896;SDS011;64229;52.246;21.054;2022-11-15T15:24:41;67.55;;;25.70;;
30896;SDS011;64229;52.246;21.054;2022-11-15T15:27:08;67.28;;;25.17;;
30896;SDS011;64229;52.246;21.054;2022-11-15T15:29:33;58.60;;;23.75;;
30896;SDS011;64229;52.246;21.054;2022-11-15T15:31:59;59.78;;;23.58;;
30896;SDS011;64229;52.246;21.054;2022-11-15T15:34:24;58.22;;;23.08;;
30896;SDS011;64229;52.246;21.054;2022-11-15T15:36:50;70.30;;;25.15;;
30896;SDS011;64229;52.246;21.054;2022-11-15T15:39:32;70.22;;;24.75;;
30896;SDS011;64229;52.246;21.054;2022-11-15T15:41:57;66.07;;;25.33;;
30896;SDS011;64229;52.246;21.054;2022-11-15T15:44:23;65.45;;;24.67;;
30896;SDS011;64229;52.246;21.054;2022-11-15T15:46:48;65.68;;;24.95;;
30896;SDS011;64229;52.246;21.054;2022-11-15T15:49:13;66.80;;;24.23;;
30896;SDS011;64229;52.246;21.054;2022-11-15T15:51:39;59.13;;;24.50;;
30896;SDS011;64229;52.246;21.054;2022-11-15T15:54:04;70.38;;;24.55;;
30896;SDS011;64229;52.246;21.054;2022-11-15T15:56:29;64.30;;;24.33;;
30896;SDS011;64229;52.246;21.054;2022-11-15T15:58:55;63.70;;;24.52;;
30896;SDS011;64229;52.246;21.054;2022-11-15T16:01:20;67.35;;;25.75;;
30896;SDS011;64229;52.246;21.054;2022-11-15T16:03:46;61.80;;;24.73;;
30896;SDS011;64229;52.246;21.054;2022-11-15T16:09:15;60.05;;;23.42;;
30896;SDS011;64229;52.246;21.054;2022-11-15T16:11:43;60.22;;;23.67;;
30896;SDS011;64229;52.246;21.054;2022-11-15T16:14:09;72.47;;;25.60;;
30896;SDS011;64229;52.246;21.054;2022-11-15T16:16:35;67.53;;;23.98;;
30896;SDS011;64229;52.246;21.054;2022-11-15T16:19:01;62.13;;;23.17;;
30896;SDS011;64229;52.246;21.054;2022-11-15T16:21:27;60.45;;;23.30;;
30896;SDS011;64229;52.246;21.054;2022-11-15T16:23:52;67.70;;;24.77;;
30896;SDS011;64229;52.246;21.054;2022-11-15T16:26:25;60.17;;;22.98;;
30896;SDS011;64229;52.246;21.054;2022-11-15T16:28:52;55.57;;;20.73;;
30896;SDS011;64229;52.246;21.054;2022-11-15T16:31:17;58.47;;;22.45;;
30896;SDS011;64229;52.246;21.054;2022-11-15T16:33:45;62.47;;;23.48;;
30896;SDS011;64229;52.246;21.054;2022-11-15T16:36:29;59.58;;;23.38;;
30896;SDS011;64229;52.246;21.054;2022-11-15T16:38:57;57.28;;;21.75;;
30896;SDS011;64229;52.246;21.054;2022-11-15T16:41:23;67.97;;;23.90;;
30896;SDS011;64229;52.246;21.054;2022-11-15T16:43:49;76.05;;;25.95;;
30896;SDS011;64229;52.246;21.054;2022-11-15T16:46:18;69.10;;;26.73;;